sensor_id;sensor_type;location;lat;lon;timestamp;P1;durP1;ratioP1;P2;durP2;ratioP2
15635;SDS011;7917;50.818;6.972;2022-10-31T00:00:43;13.32;;;8.32;;
15635;SDS011;7917;50.818;6.972;2022-10-31T00:03:11;12.38;;;9.05;;
15635;SDS011;7917;50.818;6.972;2022-10-31T00:05:41;15.95;;;9.18;;
15635;SDS011;7917;50.818;6.972;2022-10-31T00:08:09;12.82;;;8.00;;
15635;SDS011;7917;50.818;6.972;2022-10-31T00:10:37;15.48;;;8.43;;
15635;SDS011;7917;50.818;6.972;2022-10-31T00:13:06;15.40;;;7.72;;
15635;SDS011;7917;50.818;6.972;2022-10-31T00:15:33;15.25;;;7.95;;
15635;SDS011;7917;50.818;6.972;2022-10-31T00:18:00;16.45;;;8.45;;
15635;SDS011;7917;50.818;6.972;2022-10-31T00:20:29;14.48;;;8.45;;
15635;SDS011;7917;50.818;6.972;2022-10-31T00:22:58;21.80;;;8.80;;
15635;SDS011;7917;50.818;6.972;2022-10-31T00:25:26;11.23;;;8.20;;
15635;SDS011;7917;50.818;6.972;2022-10-31T00:27:55;12.80;;;8.45;;
15635;SDS011;7917;50.818;6.972;2022-10-31T00:30:23;15.07;;;8.45;;
15635;SDS011;7917;50.818;6.972;2022-10-31T00:32:50;21.23;;;9.20;;
15635;SDS011;7917;50.818;6.972;2022-10-31T00:35:18;14.05;;;8.35;;
15635;SDS011;7917;50.818;6.972;2022-10-31T00:37:45;12.88;;;8.77;;
15635;SDS011;7917;50.818;6.972;2022-10-31T00:40:14;14.15;;;8.70;;
15635;SDS011;7917;50.818;6.972;2022-10-31T00:42:42;16.40;;;9.10;;
15635;SDS011;7917;50.818;6.972;2022-10-31T00:45:09;17.83;;;9.55;;
15635;SDS011;7917;50.818;6.972;2022-10-31T00:47:37;18.35;;;8.30;;
15635;SDS011;7917;50.818;6.972;2022-10-31T00:50:05;15.02;;;7.80;;
15635;SDS011;7917;50.818;6.972;2022-10-31T00:52:33;15.38;;;8.60;;
15635;SDS011;7917;50.818;6.972;2022-10-31T00:55:00;14.05;;;8.52;;
15635;SDS011;7917;50.818;6.972;2022-10-31T00:57:29;13.90;;;8.70;;
15635;SDS011;7917;50.818;6.972;2022-10-31T00:59:56;13.07;;;8.43;;
15635;SDS011;7917;50.818;6.972;2022-10-31T01:02:24;15.48;;;9.60;;
15635;SDS011;7917;50.818;6.972;2022-10-31T01:04:51;16.65;;;8.68;;
15635;SDS011;7917;50.818;6.972;2022-10-31T01:07:19;13.93;;;8.68;;
15635;SDS011;7917;50.818;6.972;2022-10-31T01:09:47;14.52;;;8.45;;
15635;SDS011;7917;50.818;6.972;2022-10-31T01:12:14;14.48;;;8.30;;
15635;SDS011;7917;50.818;6.972;2022-10-31T01:14:44;12.55;;;8.25;;
15635;SDS011;7917;50.818;6.972;2022-10-31T01:17:12;12.10;;;7.90;;
15635;SDS011;7917;50.818;6.972;2022-10-31T01:19:40;13.57;;;7.50;;
15635;SDS011;7917;50.818;6.972;2022-10-31T01:22:07;14.55;;;8.45;;
15635;SDS011;7917;50.818;6.972;2022-10-31T01:24:35;15.02;;;8.30;;
15635;SDS011;7917;50.818;6.972;2022-10-31T01:27:05;15.70;;;9.07;;
15635;SDS011;7917;50.818;6.972;2022-10-31T01:29:34;16.50;;;8.40;;
15635;SDS011;7917;50.818;6.972;2022-10-31T01:32:04;14.02;;;8.32;;
15635;SDS011;7917;50.818;6.972;2022-10-31T01:34:32;21.00;;;9.13;;
15635;SDS011;7917;50.818;6.972;2022-10-31T01:36:59;14.38;;;8.75;;
15635;SDS011;7917;50.818;6.972;2022-10-31T01:39:27;14.57;;;8.52;;
15635;SDS011;7917;50.818;6.972;2022-10-31T01:41:54;14.30;;;8.02;;
15635;SDS011;7917;50.818;6.972;2022-10-31T01:47:26;16.48;;;8.35;;
15635;SDS011;7917;50.818;6.972;2022-10-31T01:50:00;14.18;;;7.95;;
15635;SDS011;7917;50.818;6.972;2022-10-31T01:52:32;15.48;;;9.18;;
15635;SDS011;7917;50.818;6.972;2022-10-31T01:55:06;13.82;;;8.38;;
15635;SDS011;7917;50.818;6.972;2022-10-31T01:57:36;14.88;;;8.60;;
15635;SDS011;7917;50.818;6.972;2022-10-31T02:00:07;17.42;;;8.65;;
15635;SDS011;7917;50.818;6.972;2022-10-31T02:02:38;19.63;;;8.30;;
15635;SDS011;7917;50.818;6.972;2022-10-31T02:05:05;16.48;;;8.88;;
15635;SDS011;7917;50.818;6.972;2022-10-31T02:07:37;15.68;;;8.13;;
15635;SDS011;7917;50.818;6.972;2022-10-31T02:10:08;14.55;;;8.52;;
15635;SDS011;7917;50.818;6.972;2022-10-31T02:12:35;14.00;;;8.68;;
15635;SDS011;7917;50.818;6.972;2022-10-31T02:15:04;16.13;;;9.40;;
15635;SDS011;7917;50.818;6.972;2022-10-31T02:17:33;15.50;;;8.80;;
15635;SDS011;7917;50.818;6.972;2022-10-31T02:20:04;13.65;;;8.98;;
15635;SDS011;7917;50.818;6.972;2022-10-31T02:22:40;13.27;;;9.43;;
15635;SDS011;7917;50.818;6.972;2022-10-31T02:25:41;14.02;;;8.82;;
15635;SDS011;7917;50.818;6.972;2022-10-31T02:28:27;16.17;;;9.45;;
15635;SDS011;7917;50.818;6.972;2022-10-31T02:31:14;18.50;;;8.73;;
15635;SDS011;7917;50.818;6.972;2022-10-31T02:33:50;17.17;;;9.63;;
15635;SDS011;7917;50.818;6.972;2022-10-31T02:36:22;15.50;;;8.90;;
15635;SDS011;7917;50.818;6.972;2022-10-31T02:38:56;17.17;;;8.70;;
15635;SDS011;7917;50.818;6.972;2022-10-31T02:41:35;12.50;;;9.40;;
15635;SDS011;7917;50.818;6.972;2022-10-31T02:44:15;14.25;;;8.70;;
15635;SDS011;7917;50.818;6.972;2022-10-31T02:46:51;17.73;;;9.07;;
15635;SDS011;7917;50.818;6.972;2022-10-31T02:49:26;17.90;;;9.95;;
15635;SDS011;7917;50.818;6.972;2022-10-31T02:51:59;14.82;;;8.90;;
15635;SDS011;7917;50.818;6.972;2022-10-31T02:54:27;14.05;;;9.63;;
15635;SDS011;7917;50.818;6.972;2022-10-31T02:56:56;17.55;;;9.90;;
15635;SDS011;7917;50.818;6.972;2022-10-31T02:59:26;18.45;;;12.02;;
15635;SDS011;7917;50.818;6.972;2022-10-31T03:04:56;16.88;;;10.50;;
15635;SDS011;7917;50.818;6.972;2022-10-31T03:07:42;14.93;;;9.65;;
15635;SDS011;7917;50.818;6.972;2022-10-31T03:10:22;19.05;;;10.48;;
15635;SDS011;7917;50.818;6.972;2022-10-31T03:12:56;19.67;;;10.25;;
15635;SDS011;7917;50.818;6.972;2022-10-31T03:15:29;14.55;;;8.90;;
15635;SDS011;7917;50.818;6.972;2022-10-31T03:18:00;18.88;;;9.55;;
15635;SDS011;7917;50.818;6.972;2022-10-31T03:20:36;17.38;;;9.65;;
15635;SDS011;7917;50.818;6.972;2022-10-31T03:23:06;16.33;;;9.68;;
15635;SDS011;7917;50.818;6.972;2022-10-31T03:25:42;17.80;;;9.32;;
15635;SDS011;7917;50.818;6.972;2022-10-31T03:28:11;17.00;;;9.98;;
15635;SDS011;7917;50.818;6.972;2022-10-31T03:30:42;15.25;;;9.05;;
15635;SDS011;7917;50.818;6.972;2022-10-31T03:33:13;16.35;;;9.65;;
15635;SDS011;7917;50.818;6.972;2022-10-31T03:35:45;16.40;;;10.30;;
15635;SDS011;7917;50.818;6.972;2022-10-31T03:38:14;14.98;;;9.50;;
15635;SDS011;7917;50.818;6.972;2022-10-31T03:40:43;15.55;;;9.73;;
15635;SDS011;7917;50.818;6.972;2022-10-31T03:43:13;16.25;;;9.25;;
15635;SDS011;7917;50.818;6.972;2022-10-31T03:45:44;14.85;;;9.02;;
15635;SDS011;7917;50.818;6.972;2022-10-31T03:48:14;21.35;;;10.25;;
15635;SDS011;7917;50.818;6.972;2022-10-31T03:50:47;14.40;;;9.30;;
15635;SDS011;7917;50.818;6.972;2022-10-31T03:53:24;14.93;;;9.75;;
15635;SDS011;7917;50.818;6.972;2022-10-31T03:55:56;13.63;;;9.00;;
15635;SDS011;7917;50.818;6.972;2022-10-31T03:58:27;13.75;;;9.85;;
15635;SDS011;7917;50.818;6.972;2022-10-31T04:04:23;15.73;;;10.05;;
15635;SDS011;7917;50.818;6.972;2022-10-31T04:06:52;18.02;;;8.90;;
15635;SDS011;7917;50.818;6.972;2022-10-31T04:09:21;19.40;;;9.50;;
15635;SDS011;7917;50.818;6.972;2022-10-31T04:11:53;14.77;;;9.38;;
15635;SDS011;7917;50.818;6.972;2022-10-31T04:14:29;13.45;;;7.97;;
15635;SDS011;7917;50.818;6.972;2022-10-31T04:16:57;16.25;;;9.07;;
15635;SDS011;7917;50.818;6.972;2022-10-31T04:19:30;13.02;;;7.93;;
15635;SDS011;7917;50.818;6.972;2022-10-31T04:21:58;21.65;;;9.65;;
15635;SDS011;7917;50.818;6.972;2022-10-31T04:24:26;16.55;;;9.18;;
15635;SDS011;7917;50.818;6.972;2022-10-31T04:26:53;17.50;;;8.75;;
15635;SDS011;7917;50.818;6.972;2022-10-31T04:29:21;15.43;;;9.00;;
15635;SDS011;7917;50.818;6.972;2022-10-31T04:31:48;18.40;;;9.50;;
15635;SDS011;7917;50.818;6.972;2022-10-31T04:34:15;18.15;;;10.00;;
15635;SDS011;7917;50.818;6.972;2022-10-31T04:36:44;12.95;;;8.27;;
15635;SDS011;7917;50.818;6.972;2022-10-31T04:39:11;14.30;;;9.00;;
15635;SDS011;7917;50.818;6.972;2022-10-31T04:41:39;15.18;;;8.85;;
15635;SDS011;7917;50.818;6.972;2022-10-31T04:44:08;16.77;;;9.95;;
15635;SDS011;7917;50.818;6.972;2022-10-31T04:46:35;20.92;;;9.73;;
15635;SDS011;7917;50.818;6.972;2022-10-31T04:49:04;15.23;;;9.48;;
15635;SDS011;7917;50.818;6.972;2022-10-31T04:51:31;17.10;;;9.05;;
15635;SDS011;7917;50.818;6.972;2022-10-31T04:54:00;18.75;;;9.27;;
15635;SDS011;7917;50.818;6.972;2022-10-31T04:56:28;15.57;;;9.98;;
15635;SDS011;7917;50.818;6.972;2022-10-31T04:58:55;19.40;;;8.82;;
15635;SDS011;7917;50.818;6.972;2022-10-31T05:01:22;15.18;;;9.27;;
15635;SDS011;7917;50.818;6.972;2022-10-31T05:03:50;16.02;;;9.30;;
15635;SDS011;7917;50.818;6.972;2022-10-31T05:06:18;20.20;;;9.15;;
15635;SDS011;7917;50.818;6.972;2022-10-31T05:08:48;16.77;;;9.38;;
15635;SDS011;7917;50.818;6.972;2022-10-31T05:11:17;16.10;;;9.68;;
15635;SDS011;7917;50.818;6.972;2022-10-31T05:13:45;16.90;;;8.98;;
15635;SDS011;7917;50.818;6.972;2022-10-31T05:16:12;19.08;;;9.13;;
15635;SDS011;7917;50.818;6.972;2022-10-31T05:18:39;18.23;;;9.35;;
15635;SDS011;7917;50.818;6.972;2022-10-31T05:21:07;17.92;;;8.75;;
15635;SDS011;7917;50.818;6.972;2022-10-31T05:23:34;13.82;;;8.23;;
15635;SDS011;7917;50.818;6.972;2022-10-31T05:26:02;15.23;;;9.13;;
15635;SDS011;7917;50.818;6.972;2022-10-31T05:28:34;14.32;;;9.27;;
15635;SDS011;7917;50.818;6.972;2022-10-31T05:31:01;13.95;;;9.70;;
15635;SDS011;7917;50.818;6.972;2022-10-31T05:33:28;17.83;;;9.45;;
15635;SDS011;7917;50.818;6.972;2022-10-31T05:35:56;14.70;;;9.23;;
15635;SDS011;7917;50.818;6.972;2022-10-31T05:38:23;20.52;;;10.00;;
15635;SDS011;7917;50.818;6.972;2022-10-31T05:40:50;16.95;;;8.65;;
15635;SDS011;7917;50.818;6.972;2022-10-31T05:43:23;16.70;;;9.07;;
15635;SDS011;7917;50.818;6.972;2022-10-31T05:45:53;17.92;;;9.20;;
15635;SDS011;7917;50.818;6.972;2022-10-31T05:48:20;15.80;;;9.63;;
15635;SDS011;7917;50.818;6.972;2022-10-31T05:50:48;19.52;;;9.88;;
15635;SDS011;7917;50.818;6.972;2022-10-31T05:53:15;19.52;;;9.35;;
15635;SDS011;7917;50.818;6.972;2022-10-31T05:55:42;14.38;;;8.82;;
15635;SDS011;7917;50.818;6.972;2022-10-31T05:58:11;15.80;;;11.65;;
15635;SDS011;7917;50.818;6.972;2022-10-31T06:00:38;17.10;;;9.73;;
15635;SDS011;7917;50.818;6.972;2022-10-31T06:03:07;16.02;;;9.57;;
15635;SDS011;7917;50.818;6.972;2022-10-31T06:05:36;14.77;;;8.82;;
15635;SDS011;7917;50.818;6.972;2022-10-31T06:08:03;16.40;;;9.35;;
15635;SDS011;7917;50.818;6.972;2022-10-31T06:10:31;17.08;;;9.18;;
15635;SDS011;7917;50.818;6.972;2022-10-31T06:12:59;17.88;;;8.90;;
15635;SDS011;7917;50.818;6.972;2022-10-31T06:15:26;14.05;;;8.38;;
15635;SDS011;7917;50.818;6.972;2022-10-31T06:17:57;16.35;;;9.43;;
15635;SDS011;7917;50.818;6.972;2022-10-31T06:20:31;15.90;;;8.57;;
15635;SDS011;7917;50.818;6.972;2022-10-31T06:22:58;13.20;;;8.90;;
15635;SDS011;7917;50.818;6.972;2022-10-31T06:25:25;18.25;;;8.75;;
15635;SDS011;7917;50.818;6.972;2022-10-31T06:27:54;13.63;;;9.32;;
15635;SDS011;7917;50.818;6.972;2022-10-31T06:30:21;17.55;;;9.35;;
15635;SDS011;7917;50.818;6.972;2022-10-31T06:32:48;19.08;;;9.70;;
15635;SDS011;7917;50.818;6.972;2022-10-31T06:35:19;17.05;;;9.88;;
15635;SDS011;7917;50.818;6.972;2022-10-31T06:37:52;17.65;;;9.18;;
15635;SDS011;7917;50.818;6.972;2022-10-31T06:40:19;23.73;;;9.77;;
15635;SDS011;7917;50.818;6.972;2022-10-31T06:42:47;19.50;;;10.52;;
15635;SDS011;7917;50.818;6.972;2022-10-31T06:45:22;21.77;;;9.68;;
15635;SDS011;7917;50.818;6.972;2022-10-31T06:47:54;18.25;;;10.25;;
15635;SDS011;7917;50.818;6.972;2022-10-31T06:50:23;16.45;;;10.30;;
15635;SDS011;7917;50.818;6.972;2022-10-31T06:52:52;18.15;;;10.48;;
15635;SDS011;7917;50.818;6.972;2022-10-31T06:55:21;12.05;;;8.85;;
15635;SDS011;7917;50.818;6.972;2022-10-31T06:57:49;16.70;;;10.07;;
15635;SDS011;7917;50.818;6.972;2022-10-31T07:00:16;15.10;;;9.88;;
15635;SDS011;7917;50.818;6.972;2022-10-31T07:02:51;16.33;;;9.82;;
15635;SDS011;7917;50.818;6.972;2022-10-31T07:05:20;16.45;;;8.88;;
15635;SDS011;7917;50.818;6.972;2022-10-31T07:07:52;15.95;;;9.52;;
15635;SDS011;7917;50.818;6.972;2022-10-31T07:10:20;18.17;;;9.77;;
15635;SDS011;7917;50.818;6.972;2022-10-31T07:12:51;16.50;;;8.77;;
15635;SDS011;7917;50.818;6.972;2022-10-31T07:15:21;23.73;;;12.20;;
15635;SDS011;7917;50.818;6.972;2022-10-31T07:17:48;32.13;;;9.52;;
15635;SDS011;7917;50.818;6.972;2022-10-31T07:20:16;23.35;;;10.57;;
15635;SDS011;7917;50.818;6.972;2022-10-31T07:22:46;21.73;;;10.00;;
15635;SDS011;7917;50.818;6.972;2022-10-31T07:25:20;15.88;;;9.02;;
15635;SDS011;7917;50.818;6.972;2022-10-31T07:27:49;17.35;;;9.10;;
15635;SDS011;7917;50.818;6.972;2022-10-31T07:30:17;16.13;;;8.95;;
15635;SDS011;7917;50.818;6.972;2022-10-31T07:32:44;18.58;;;9.77;;
15635;SDS011;7917;50.818;6.972;2022-10-31T07:35:15;13.88;;;9.15;;
15635;SDS011;7917;50.818;6.972;2022-10-31T07:37:43;15.32;;;9.77;;
15635;SDS011;7917;50.818;6.972;2022-10-31T07:40:10;20.23;;;10.10;;
15635;SDS011;7917;50.818;6.972;2022-10-31T07:42:43;14.55;;;9.07;;
15635;SDS011;7917;50.818;6.972;2022-10-31T07:45:12;20.20;;;9.80;;
15635;SDS011;7917;50.818;6.972;2022-10-31T07:47:40;21.70;;;10.20;;
15635;SDS011;7917;50.818;6.972;2022-10-31T07:50:10;19.60;;;9.80;;
15635;SDS011;7917;50.818;6.972;2022-10-31T07:52:38;22.42;;;11.82;;
15635;SDS011;7917;50.818;6.972;2022-10-31T07:55:06;17.27;;;10.00;;
15635;SDS011;7917;50.818;6.972;2022-10-31T07:57:33;18.67;;;9.70;;
15635;SDS011;7917;50.818;6.972;2022-10-31T08:00:03;22.15;;;10.50;;
15635;SDS011;7917;50.818;6.972;2022-10-31T08:02:31;15.98;;;10.02;;
15635;SDS011;7917;50.818;6.972;2022-10-31T08:04:59;18.83;;;10.98;;
15635;SDS011;7917;50.818;6.972;2022-10-31T08:07:28;18.95;;;10.27;;
15635;SDS011;7917;50.818;6.972;2022-10-31T08:09:55;20.63;;;8.88;;
15635;SDS011;7917;50.818;6.972;2022-10-31T08:12:26;18.40;;;9.55;;
15635;SDS011;7917;50.818;6.972;2022-10-31T08:14:53;11.88;;;8.57;;
15635;SDS011;7917;50.818;6.972;2022-10-31T08:17:24;16.75;;;9.98;;
15635;SDS011;7917;50.818;6.972;2022-10-31T08:19:52;17.23;;;9.55;;
15635;SDS011;7917;50.818;6.972;2022-10-31T08:22:21;16.67;;;10.27;;
15635;SDS011;7917;50.818;6.972;2022-10-31T08:24:48;17.95;;;9.23;;
15635;SDS011;7917;50.818;6.972;2022-10-31T08:27:17;15.20;;;8.52;;
15635;SDS011;7917;50.818;6.972;2022-10-31T08:29:44;16.52;;;9.35;;
15635;SDS011;7917;50.818;6.972;2022-10-31T08:32:14;13.70;;;8.63;;
15635;SDS011;7917;50.818;6.972;2022-10-31T08:34:43;22.35;;;9.07;;
15635;SDS011;7917;50.818;6.972;2022-10-31T08:37:10;16.45;;;9.50;;
15635;SDS011;7917;50.818;6.972;2022-10-31T08:42:39;13.90;;;8.80;;
15635;SDS011;7917;50.818;6.972;2022-10-31T08:48:30;12.95;;;9.10;;
15635;SDS011;7917;50.818;6.972;2022-10-31T08:51:00;19.23;;;9.52;;
15635;SDS011;7917;50.818;6.972;2022-10-31T08:53:27;15.93;;;8.80;;
15635;SDS011;7917;50.818;6.972;2022-10-31T08:55:55;19.63;;;9.30;;
15635;SDS011;7917;50.818;6.972;2022-10-31T08:58:22;13.43;;;8.95;;
15635;SDS011;7917;50.818;6.972;2022-10-31T09:00:52;15.57;;;9.68;;
15635;SDS011;7917;50.818;6.972;2022-10-31T09:03:21;14.50;;;9.05;;
15635;SDS011;7917;50.818;6.972;2022-10-31T09:05:54;17.45;;;8.55;;
15635;SDS011;7917;50.818;6.972;2022-10-31T09:08:25;15.57;;;8.60;;
15635;SDS011;7917;50.818;6.972;2022-10-31T09:10:55;18.90;;;9.32;;
15635;SDS011;7917;50.818;6.972;2022-10-31T09:13:27;12.23;;;8.40;;
15635;SDS011;7917;50.818;6.972;2022-10-31T09:15:57;19.85;;;8.60;;
15635;SDS011;7917;50.818;6.972;2022-10-31T09:21:35;16.02;;;8.38;;
15635;SDS011;7917;50.818;6.972;2022-10-31T09:24:04;11.35;;;8.35;;
15635;SDS011;7917;50.818;6.972;2022-10-31T09:26:33;16.15;;;8.85;;
15635;SDS011;7917;50.818;6.972;2022-10-31T09:29:00;14.80;;;7.90;;
15635;SDS011;7917;50.818;6.972;2022-10-31T09:31:27;18.45;;;8.43;;
15635;SDS011;7917;50.818;6.972;2022-10-31T09:33:56;16.30;;;8.50;;
15635;SDS011;7917;50.818;6.972;2022-10-31T09:36:23;17.00;;;8.25;;
15635;SDS011;7917;50.818;6.972;2022-10-31T09:38:51;15.65;;;8.30;;
15635;SDS011;7917;50.818;6.972;2022-10-31T09:41:22;12.43;;;8.27;;
15635;SDS011;7917;50.818;6.972;2022-10-31T09:43:56;17.77;;;9.50;;
15635;SDS011;7917;50.818;6.972;2022-10-31T09:46:29;15.27;;;7.72;;
15635;SDS011;7917;50.818;6.972;2022-10-31T09:52:03;14.48;;;9.45;;
15635;SDS011;7917;50.818;6.972;2022-10-31T09:54:38;17.25;;;9.40;;
15635;SDS011;7917;50.818;6.972;2022-10-31T09:57:12;12.88;;;8.02;;
15635;SDS011;7917;50.818;6.972;2022-10-31T09:59:44;21.40;;;8.60;;
15635;SDS011;7917;50.818;6.972;2022-10-31T10:02:16;14.35;;;7.78;;
15635;SDS011;7917;50.818;6.972;2022-10-31T10:04:50;14.38;;;7.80;;
15635;SDS011;7917;50.818;6.972;2022-10-31T10:07:32;12.95;;;7.63;;
15635;SDS011;7917;50.818;6.972;2022-10-31T10:10:11;14.30;;;8.95;;
15635;SDS011;7917;50.818;6.972;2022-10-31T10:12:46;12.00;;;7.88;;
15635;SDS011;7917;50.818;6.972;2022-10-31T10:15:32;17.08;;;7.80;;
15635;SDS011;7917;50.818;6.972;2022-10-31T10:18:16;12.93;;;7.63;;
15635;SDS011;7917;50.818;6.972;2022-10-31T10:20:56;14.70;;;7.10;;
15635;SDS011;7917;50.818;6.972;2022-10-31T10:23:39;11.82;;;6.93;;
15635;SDS011;7917;50.818;6.972;2022-10-31T10:26:17;15.05;;;7.50;;
15635;SDS011;7917;50.818;6.972;2022-10-31T10:28:48;14.88;;;7.20;;
15635;SDS011;7917;50.818;6.972;2022-10-31T10:31:20;12.45;;;7.25;;
15635;SDS011;7917;50.818;6.972;2022-10-31T10:33:55;13.75;;;6.72;;
15635;SDS011;7917;50.818;6.972;2022-10-31T10:36:31;14.77;;;6.88;;
15635;SDS011;7917;50.818;6.972;2022-10-31T10:39:04;13.15;;;6.60;;
15635;SDS011;7917;50.818;6.972;2022-10-31T10:41:37;12.27;;;7.80;;
15635;SDS011;7917;50.818;6.972;2022-10-31T10:44:09;11.23;;;7.45;;
15635;SDS011;7917;50.818;6.972;2022-10-31T10:46:40;12.38;;;7.70;;
15635;SDS011;7917;50.818;6.972;2022-10-31T10:49:29;11.07;;;6.95;;
15635;SDS011;7917;50.818;6.972;2022-10-31T10:52:02;13.07;;;7.40;;
15635;SDS011;7917;50.818;6.972;2022-10-31T10:54:41;15.02;;;7.15;;
15635;SDS011;7917;50.818;6.972;2022-10-31T10:57:17;15.52;;;7.65;;
15635;SDS011;7917;50.818;6.972;2022-10-31T10:59:55;12.63;;;7.82;;
15635;SDS011;7917;50.818;6.972;2022-10-31T11:02:24;17.10;;;8.10;;
15635;SDS011;7917;50.818;6.972;2022-10-31T11:04:55;14.68;;;7.65;;
15635;SDS011;7917;50.818;6.972;2022-10-31T11:07:23;17.27;;;7.47;;
15635;SDS011;7917;50.818;6.972;2022-10-31T11:09:51;13.23;;;7.30;;
15635;SDS011;7917;50.818;6.972;2022-10-31T11:12:32;15.80;;;7.75;;
15635;SDS011;7917;50.818;6.972;2022-10-31T11:15:02;13.93;;;8.65;;
15635;SDS011;7917;50.818;6.972;2022-10-31T11:17:36;15.20;;;7.70;;
15635;SDS011;7917;50.818;6.972;2022-10-31T11:20:16;12.68;;;7.65;;
15635;SDS011;7917;50.818;6.972;2022-10-31T11:23:00;13.70;;;6.90;;
15635;SDS011;7917;50.818;6.972;2022-10-31T11:25:31;14.75;;;7.70;;
15635;SDS011;7917;50.818;6.972;2022-10-31T11:27:59;16.67;;;8.75;;
15635;SDS011;7917;50.818;6.972;2022-10-31T11:30:28;11.18;;;7.47;;
15635;SDS011;7917;50.818;6.972;2022-10-31T11:32:57;12.05;;;6.82;;
15635;SDS011;7917;50.818;6.972;2022-10-31T11:35:26;15.38;;;8.10;;
15635;SDS011;7917;50.818;6.972;2022-10-31T11:37:55;16.20;;;6.60;;
15635;SDS011;7917;50.818;6.972;2022-10-31T11:40:25;13.00;;;6.32;;
15635;SDS011;7917;50.818;6.972;2022-10-31T11:42:54;13.65;;;7.07;;
15635;SDS011;7917;50.818;6.972;2022-10-31T11:45:29;12.07;;;6.30;;
15635;SDS011;7917;50.818;6.972;2022-10-31T11:48:00;8.55;;;6.32;;
15635;SDS011;7917;50.818;6.972;2022-10-31T11:50:30;11.77;;;6.88;;
15635;SDS011;7917;50.818;6.972;2022-10-31T11:53:00;11.80;;;7.40;;
15635;SDS011;7917;50.818;6.972;2022-10-31T11:55:32;13.15;;;6.07;;
15635;SDS011;7917;50.818;6.972;2022-10-31T11:58:00;16.15;;;6.65;;
15635;SDS011;7917;50.818;6.972;2022-10-31T12:00:29;16.10;;;6.93;;
15635;SDS011;7917;50.818;6.972;2022-10-31T12:03:06;11.25;;;7.05;;
15635;SDS011;7917;50.818;6.972;2022-10-31T12:05:41;12.57;;;6.78;;
15635;SDS011;7917;50.818;6.972;2022-10-31T12:08:11;13.77;;;7.05;;
15635;SDS011;7917;50.818;6.972;2022-10-31T12:10:40;12.88;;;6.90;;
15635;SDS011;7917;50.818;6.972;2022-10-31T12:13:20;15.30;;;6.45;;
15635;SDS011;7917;50.818;6.972;2022-10-31T12:16:00;12.68;;;6.55;;
15635;SDS011;7917;50.818;6.972;2022-10-31T12:21:31;12.23;;;6.05;;
15635;SDS011;7917;50.818;6.972;2022-10-31T12:24:09;13.48;;;9.10;;
15635;SDS011;7917;50.818;6.972;2022-10-31T12:26:45;11.20;;;7.15;;
15635;SDS011;7917;50.818;6.972;2022-10-31T12:29:24;11.45;;;7.15;;
15635;SDS011;7917;50.818;6.972;2022-10-31T12:32:03;11.00;;;6.00;;
15635;SDS011;7917;50.818;6.972;2022-10-31T12:34:47;12.85;;;7.40;;
15635;SDS011;7917;50.818;6.972;2022-10-31T12:37:31;10.38;;;6.70;;
15635;SDS011;7917;50.818;6.972;2022-10-31T12:40:15;19.13;;;8.00;;
15635;SDS011;7917;50.818;6.972;2022-10-31T12:43:12;12.77;;;6.82;;
15635;SDS011;7917;50.818;6.972;2022-10-31T12:45:52;11.73;;;6.28;;
15635;SDS011;7917;50.818;6.972;2022-10-31T12:51:23;15.85;;;6.63;;
15635;SDS011;7917;50.818;6.972;2022-10-31T12:54:03;9.85;;;6.18;;
15635;SDS011;7917;50.818;6.972;2022-10-31T12:56:56;12.40;;;7.20;;
15635;SDS011;7917;50.818;6.972;2022-10-31T12:59:30;11.82;;;6.72;;
15635;SDS011;7917;50.818;6.972;2022-10-31T13:02:03;8.80;;;5.60;;
15635;SDS011;7917;50.818;6.972;2022-10-31T13:04:44;12.02;;;6.60;;
15635;SDS011;7917;50.818;6.972;2022-10-31T13:07:17;12.18;;;6.28;;
15635;SDS011;7917;50.818;6.972;2022-10-31T13:09:53;14.18;;;6.72;;
15635;SDS011;7917;50.818;6.972;2022-10-31T13:12:22;14.77;;;6.30;;
15635;SDS011;7917;50.818;6.972;2022-10-31T13:14:52;9.80;;;5.97;;
15635;SDS011;7917;50.818;6.972;2022-10-31T13:17:26;16.65;;;6.68;;
15635;SDS011;7917;50.818;6.972;2022-10-31T13:20:03;13.15;;;6.72;;
15635;SDS011;7917;50.818;6.972;2022-10-31T13:22:42;14.70;;;6.30;;
15635;SDS011;7917;50.818;6.972;2022-10-31T13:25:15;14.30;;;6.40;;
15635;SDS011;7917;50.818;6.972;2022-10-31T13:27:48;11.57;;;6.22;;
15635;SDS011;7917;50.818;6.972;2022-10-31T13:30:20;11.38;;;5.97;;
15635;SDS011;7917;50.818;6.972;2022-10-31T13:32:50;12.60;;;5.70;;
15635;SDS011;7917;50.818;6.972;2022-10-31T13:35:25;12.90;;;6.00;;
15635;SDS011;7917;50.818;6.972;2022-10-31T13:38:05;9.57;;;4.97;;
15635;SDS011;7917;50.818;6.972;2022-10-31T13:40:42;11.35;;;6.30;;
15635;SDS011;7917;50.818;6.972;2022-10-31T13:43:17;11.20;;;5.20;;
15635;SDS011;7917;50.818;6.972;2022-10-31T13:45:52;11.85;;;5.72;;
15635;SDS011;7917;50.818;6.972;2022-10-31T13:48:34;8.85;;;4.93;;
15635;SDS011;7917;50.818;6.972;2022-10-31T13:51:06;12.30;;;6.43;;
15635;SDS011;7917;50.818;6.972;2022-10-31T13:53:44;10.85;;;5.30;;
15635;SDS011;7917;50.818;6.972;2022-10-31T13:56:24;15.95;;;5.55;;
15635;SDS011;7917;50.818;6.972;2022-10-31T13:59:15;13.82;;;5.68;;
15635;SDS011;7917;50.818;6.972;2022-10-31T14:01:46;11.88;;;5.13;;
15635;SDS011;7917;50.818;6.972;2022-10-31T14:04:19;13.15;;;4.85;;
15635;SDS011;7917;50.818;6.972;2022-10-31T14:06:54;8.50;;;4.85;;
15635;SDS011;7917;50.818;6.972;2022-10-31T14:09:32;14.43;;;5.00;;
15635;SDS011;7917;50.818;6.972;2022-10-31T14:12:02;9.25;;;4.43;;
15635;SDS011;7917;50.818;6.972;2022-10-31T14:14:34;8.55;;;4.32;;
15635;SDS011;7917;50.818;6.972;2022-10-31T14:17:14;11.50;;;5.20;;
15635;SDS011;7917;50.818;6.972;2022-10-31T14:19:56;11.45;;;4.97;;
15635;SDS011;7917;50.818;6.972;2022-10-31T14:22:32;11.07;;;4.50;;
15635;SDS011;7917;50.818;6.972;2022-10-31T14:25:00;10.75;;;5.60;;
15635;SDS011;7917;50.818;6.972;2022-10-31T14:27:32;13.60;;;4.95;;
15635;SDS011;7917;50.818;6.972;2022-10-31T14:30:16;9.98;;;4.93;;
15635;SDS011;7917;50.818;6.972;2022-10-31T14:32:51;8.45;;;4.07;;
15635;SDS011;7917;50.818;6.972;2022-10-31T14:35:21;10.15;;;5.03;;
15635;SDS011;7917;50.818;6.972;2022-10-31T14:40:50;13.77;;;6.10;;
15635;SDS011;7917;50.818;6.972;2022-10-31T14:43:35;8.57;;;4.53;;
15635;SDS011;7917;50.818;6.972;2022-10-31T14:46:12;11.10;;;4.40;;
15635;SDS011;7917;50.818;6.972;2022-10-31T14:49:01;8.63;;;4.32;;
15635;SDS011;7917;50.818;6.972;2022-10-31T14:51:46;11.77;;;5.25;;
15635;SDS011;7917;50.818;6.972;2022-10-31T14:57:47;10.32;;;5.00;;
15635;SDS011;7917;50.818;6.972;2022-10-31T15:00:18;10.63;;;4.53;;
15635;SDS011;7917;50.818;6.972;2022-10-31T15:02:49;14.75;;;4.88;;
15635;SDS011;7917;50.818;6.972;2022-10-31T15:05:27;8.05;;;5.35;;
15635;SDS011;7917;50.818;6.972;2022-10-31T15:07:56;11.38;;;4.70;;
15635;SDS011;7917;50.818;6.972;2022-10-31T15:10:24;12.15;;;5.20;;
15635;SDS011;7917;50.818;6.972;2022-10-31T15:12:57;11.00;;;4.47;;
15635;SDS011;7917;50.818;6.972;2022-10-31T15:15:35;10.70;;;4.80;;
15635;SDS011;7917;50.818;6.972;2022-10-31T15:18:13;13.35;;;5.28;;
15635;SDS011;7917;50.818;6.972;2022-10-31T15:20:55;8.13;;;4.68;;
15635;SDS011;7917;50.818;6.972;2022-10-31T15:23:24;13.43;;;6.18;;
15635;SDS011;7917;50.818;6.972;2022-10-31T15:25:57;11.60;;;4.97;;
15635;SDS011;7917;50.818;6.972;2022-10-31T15:28:27;11.88;;;6.05;;
15635;SDS011;7917;50.818;6.972;2022-10-31T15:30:56;9.32;;;5.07;;
15635;SDS011;7917;50.818;6.972;2022-10-31T15:33:28;12.80;;;4.13;;
15635;SDS011;7917;50.818;6.972;2022-10-31T15:35:59;11.25;;;5.20;;
15635;SDS011;7917;50.818;6.972;2022-10-31T15:38:28;9.48;;;4.63;;
15635;SDS011;7917;50.818;6.972;2022-10-31T15:40:56;10.85;;;4.68;;
15635;SDS011;7917;50.818;6.972;2022-10-31T15:43:34;10.98;;;5.15;;
15635;SDS011;7917;50.818;6.972;2022-10-31T15:46:03;11.52;;;4.70;;
15635;SDS011;7917;50.818;6.972;2022-10-31T15:48:33;11.45;;;5.00;;